Time;durP1;ratioP1;P1;durP2;ratioP2;P2;SDS_P1;SDS_P2;PMS_P1;PMS_P2;Temp;Humidity;BMP_temperature;BMP_pressure;BME280_temperature;BME280_humidity;BME280_pressure;Samples;Min_cycle;Max_cycle;Signal;HPM_P1;HPM_P2
2022/11/22 00:01:39;;;;;;;1.67;1.00;;;;;;;;;;4980687;28;20031;-38
2022/11/22 00:04:05;;;;;;;3.67;1.10;;;;;;;;;;4984219;28;20018;-39
2022/11/22 00:06:31;;;;;;;2.63;1.77;;;;;;;;;;4966677;28;20419;-39
2022/11/22 00:08:57;;;;;;;2.03;1.10;;;;;;;;;;4982774;28;20022;-39
2022/11/22 00:11:23;;;;;;;1.52;0.93;;;;;;;;;;4991978;28;20060;-38
2022/11/22 00:13:49;;;;;;;2.92;1.52;;;;;;;;;;4993069;28;20030;-41
2022/11/22 00:16:15;;;;;;;1.95;1.00;;;;;;;;;;4991154;28;20088;-38
2022/11/22 00:18:41;;;;;;;2.20;1.20;;;;;;;;;;4993009;28;20039;-39
2022/11/22 00:21:07;;;;;;;2.22;1.20;;;;;;;;;;4991679;28;20073;-39
2022/11/22 00:23:33;;;;;;;2.83;1.15;;;;;;;;;;4993517;28;20022;-38
2022/11/22 00:25:59;;;;;;;1.02;0.70;;;;;;;;;;4991279;28;20380;-39
2022/11/22 00:28:25;;;;;;;2.33;1.00;;;;;;;;;;4992996;28;20029;-38
2022/11/22 00:30:51;;;;;;;2.15;1.05;;;;;;;;;;4991058;28;20529;-41
2022/11/22 00:33:17;;;;;;;1.83;1.02;;;;;;;;;;4990317;28;20053;-38
2022/11/22 00:35:45;;;;;;;1.92;1.13;;;;;;;;;;4992242;28;20037;-39
2022/11/22 00:38:11;;;;;;;2.15;1.27;;;;;;;;;;4991897;28;20227;-38
2022/11/22 00:40:37;;;;;;;1.70;1.00;;;;;;;;;;4992270;28;20479;-39
2022/11/22 00:43:03;;;;;;;2.47;1.00;;;;;;;;;;4991287;28;20049;-38
2022/11/22 00:45:29;;;;;;;3.78;0.90;;;;;;;;;;4991905;28;20034;-39
2022/11/22 00:47:54;;;;;;;1.85;1.05;;;;;;;;;;4992104;28;20057;-39
2022/11/22 00:50:20;;;;;;;2.15;1.10;;;;;;;;;;4991330;28;20473;-38
2022/11/22 00:52:46;;;;;;;2.17;1.40;;;;;;;;;;4991869;28;20444;-39
2022/11/22 00:55:12;;;;;;;2.17;1.13;;;;;;;;;;4990877;28;20037;-39
2022/11/22 00:57:38;;;;;;;1.42;0.98;;;;;;;;;;4992467;28;20041;-39
2022/11/22 01:00:05;;;;;;;1.88;0.88;;;;;;;;;;4991170;28;20383;-39
2022/11/22 01:02:31;;;;;;;2.03;1.52;;;;;;;;;;4991168;28;20026;-38
2022/11/22 01:04:57;;;;;;;1.98;1.10;;;;;;;;;;4990882;28;20026;-39
2022/11/22 01:07:23;;;;;;;4.95;1.40;;;;;;;;;;4987835;28;20105;-39
2022/11/22 01:09:49;;;;;;;1.48;1.08;;;;;;;;;;4991373;28;20033;-41
2022/11/22 01:12:15;;;;;;;1.85;0.93;;;;;;;;;;4991221;28;20096;-39
2022/11/22 01:14:41;;;;;;;1.35;0.98;;;;;;;;;;4992676;28;20072;-39
2022/11/22 01:17:07;;;;;;;2.03;1.45;;;;;;;;;;4990884;28;20113;-39
2022/11/22 01:19:33;;;;;;;1.50;1.00;;;;;;;;;;4990127;28;20034;-39
2022/11/22 01:21:59;;;;;;;1.05;0.77;;;;;;;;;;4990321;28;20026;-38
2022/11/22 01:24:25;;;;;;;1.88;0.90;;;;;;;;;;4991400;28;20034;-39
2022/11/22 01:26:52;;;;;;;1.40;0.88;;;;;;;;;;4990529;28;20168;-39
2022/11/22 01:29:18;;;;;;;1.27;0.98;;;;;;;;;;4991202;28;20109;-39
2022/11/22 01:31:44;;;;;;;2.65;1.00;;;;;;;;;;4990674;28;20033;-39
2022/11/22 01:34:10;;;;;;;1.90;1.00;;;;;;;;;;4990735;28;20053;-39
2022/11/22 01:36:36;;;;;;;2.58;1.00;;;;;;;;;;4991884;28;20478;-38
2022/11/22 01:39:02;;;;;;;2.25;1.00;;;;;;;;;;4990858;28;20022;-39
2022/11/22 01:41:28;;;;;;;1.55;0.60;;;;;;;;;;4987157;28;20538;-38
2022/11/22 01:43:54;;;;;;;1.38;0.80;;;;;;;;;;4991391;28;20050;-39
2022/11/22 01:46:26;;;;;;;1.25;0.80;;;;;;;;;;4991280;28;20388;-38
2022/11/22 01:48:56;;;;;;;1.67;0.90;;;;;;;;;;4990806;28;20074;-39
2022/11/22 01:51:22;;;;;;;1.75;1.30;;;;;;;;;;4990761;28;20023;-38
2022/11/22 01:53:48;;;;;;;1.50;0.98;;;;;;;;;;4991445;28;20072;-41
2022/11/22 01:56:16;;;;;;;1.88;1.02;;;;;;;;;;4991053;28;20031;-39
2022/11/22 01:58:43;;;;;;;1.52;0.80;;;;;;;;;;4987773;28;20057;-39
2022/11/22 02:01:09;;;;;;;0.90;0.60;;;;;;;;;;4989453;28;20089;-39
2022/11/22 02:03:37;;;;;;;1.17;0.70;;;;;;;;;;4991877;28;20022;-39
2022/11/22 02:06:03;;;;;;;1.50;1.08;;;;;;;;;;4990723;28;20043;-38
2022/11/22 02:08:36;;;;;;;2.90;1.48;;;;;;;;;;4991858;28;20026;-39
2022/11/22 02:11:03;;;;;;;1.52;0.90;;;;;;;;;;4984903;28;20089;-38
2022/11/22 02:13:30;;;;;;;1.75;0.93;;;;;;;;;;4991053;28;20026;-38
2022/11/22 02:15:57;;;;;;;1.20;0.90;;;;;;;;;;4985634;28;20033;-39
2022/11/22 02:18:23;;;;;;;1.35;0.80;;;;;;;;;;4991479;28;20030;-38
2022/11/22 02:20:49;;;;;;;2.28;0.82;;;;;;;;;;4989636;28;20080;-41
2022/11/22 02:23:18;;;;;;;1.20;0.90;;;;;;;;;;4991092;28;20089;-39
2022/11/22 02:25:57;;;;;;;1.15;0.90;;;;;;;;;;4990919;28;20053;-39
2022/11/22 02:28:24;;;;;;;1.85;0.98;;;;;;;;;;4991450;28;20034;-38
2022/11/22 02:30:50;;;;;;;1.48;1.00;;;;;;;;;;4989549;28;20031;-42
2022/11/22 02:33:16;;;;;;;1.02;0.73;;;;;;;;;;4989634;28;20045;-39
2022/11/22 02:35:43;;;;;;;1.55;0.77;;;;;;;;;;4991196;28;20158;-39
2022/11/22 02:38:14;;;;;;;2.33;0.90;;;;;;;;;;4990697;28;20029;-39
2022/11/22 02:40:43;;;;;;;1.08;0.70;;;;;;;;;;4991606;28;20086;-39
2022/11/22 02:43:11;;;;;;;0.80;0.75;;;;;;;;;;4994396;28;20108;-39
2022/11/22 02:45:37;;;;;;;1.75;0.88;;;;;;;;;;4994303;28;20487;-39
2022/11/22 02:48:04;;;;;;;1.48;0.77;;;;;;;;;;4993913;28;20026;-39
2022/11/22 02:50:30;;;;;;;1.05;0.70;;;;;;;;;;4988903;28;20027;-39
2022/11/22 02:52:56;;;;;;;1.58;0.60;;;;;;;;;;4993346;28;20056;-38
2022/11/22 02:55:22;;;;;;;1.85;0.80;;;;;;;;;;4994229;28;20026;-38
2022/11/22 02:57:48;;;;;;;1.35;0.80;;;;;;;;;;4994528;28;20028;-42
2022/11/22 03:00:14;;;;;;;1.55;0.90;;;;;;;;;;4993306;28;20074;-39
2022/11/22 03:02:40;;;;;;;1.73;0.93;;;;;;;;;;4994661;28;20041;-39
2022/11/22 03:05:06;;;;;;;1.00;0.85;;;;;;;;;;4993765;28;20030;-39
2022/11/22 03:07:32;;;;;;;1.17;0.95;;;;;;;;;;4988300;28;20080;-38
2022/11/22 03:09:58;;;;;;;0.82;0.63;;;;;;;;;;4991933;28;20434;-39
2022/11/22 03:12:24;;;;;;;1.20;0.90;;;;;;;;;;4994741;28;20030;-39
2022/11/22 03:14:50;;;;;;;1.35;0.47;;;;;;;;;;4993815;28;20076;-41
2022/11/22 03:17:16;;;;;;;1.02;0.70;;;;;;;;;;4993936;28;20041;-39
2022/11/22 03:19:42;;;;;;;1.27;0.90;;;;;;;;;;4992705;28;20023;-40
2022/11/22 03:22:08;;;;;;;1.30;0.90;;;;;;;;;;4992293;28;20124;-38
2022/11/22 03:24:34;;;;;;;0.90;0.63;;;;;;;;;;4989535;28;20037;-39
2022/11/22 03:27:00;;;;;;;1.33;0.70;;;;;;;;;;4992766;28;20031;-39
2022/11/22 03:29:26;;;;;;;0.88;0.55;;;;;;;;;;4993334;28;20027;-39
2022/11/22 03:31:52;;;;;;;0.88;0.70;;;;;;;;;;4992302;28;20022;-39
2022/11/22 03:34:18;;;;;;;1.48;0.70;;;;;;;;;;4993701;28;20023;-38
2022/11/22 03:36:44;;;;;;;1.40;0.80;;;;;;;;;;4993788;28;20109;-38
2022/11/22 03:39:10;;;;;;;2.08;1.17;;;;;;;;;;4993088;28;20022;-39
2022/11/22 03:41:36;;;;;;;0.68;0.52;;;;;;;;;;4992490;28;20073;-39
2022/11/22 03:44:02;;;;;;;0.82;0.40;;;;;;;;;;4993370;28;20035;-39
2022/11/22 03:46:28;;;;;;;1.38;0.95;;;;;;;;;;4993619;28;20463;-39
2022/11/22 03:48:54;;;;;;;0.85;0.40;;;;;;;;;;4992980;28;20034;-39
2022/11/22 03:51:20;;;;;;;2.13;0.70;;;;;;;;;;4991213;28;20021;-39
2022/11/22 03:53:46;;;;;;;0.95;0.75;;;;;;;;;;4992574;28;20452;-39
2022/11/22 03:56:12;;;;;;;1.20;0.55;;;;;;;;;;4992403;28;20068;-39
2022/11/22 03:58:38;;;;;;;1.60;0.82;;;;;;;;;;4989144;28;20030;-38
2022/11/22 04:01:04;;;;;;;1.02;0.70;;;;;;;;;;4990805;28;20101;-39
2022/11/22 04:03:30;;;;;;;0.90;0.52;;;;;;;;;;4992531;28;20147;-39
2022/11/22 04:05:56;;;;;;;1.55;0.80;;;;;;;;;;4983679;28;20113;-39
2022/11/22 04:08:22;;;;;;;1.00;0.68;;;;;;;;;;4981689;28;20455;-39
2022/11/22 04:10:49;;;;;;;1.25;0.60;;;;;;;;;;4984298;28;20070;-41
2022/11/22 04:13:15;;;;;;;1.10;0.60;;;;;;;;;;4988173;28;20014;-39
2022/11/22 04:15:41;;;;;;;1.23;0.52;;;;;;;;;;4985399;28;20026;-39
2022/11/22 04:18:10;;;;;;;1.48;0.80;;;;;;;;;;4985517;28;20081;-39
2022/11/22 04:23:22;;;;;;;1.50;0.50;;;;;;;;;;4982891;28;20029;-38
2022/11/22 04:25:49;;;;;;;1.23;0.50;;;;;;;;;;4992555;28;20034;-41
2022/11/22 04:28:17;;;;;;;0.85;0.60;;;;;;;;;;4992623;28;20027;-39
2022/11/22 04:33:28;;;;;;;0.90;0.55;;;;;;;;;;4984537;28;20052;-39
2022/11/22 04:35:54;;;;;;;0.90;0.60;;;;;;;;;;4991673;28;20030;-39
2022/11/22 04:38:21;;;;;;;1.25;0.63;;;;;;;;;;4992930;28;20030;-38
2022/11/22 04:40:47;;;;;;;1.10;0.65;;;;;;;;;;4991402;28;20085;-38
2022/11/22 04:46:12;;;;;;;0.90;0.60;;;;;;;;;;4991725;28;20154;-38
2022/11/22 04:48:38;;;;;;;1.58;0.70;;;;;;;;;;4991571;28;20482;-39
2022/11/22 04:53:49;;;;;;;0.90;0.60;;;;;;;;;;4986114;28;20494;-41
2022/11/22 04:56:15;;;;;;;1.10;0.60;;;;;;;;;;4992242;28;20042;-39
2022/11/22 04:58:41;;;;;;;1.50;0.90;;;;;;;;;;4988994;28;20023;-39
2022/11/22 05:01:07;;;;;;;2.75;0.60;;;;;;;;;;4989243;28;20100;-39
2022/11/22 05:03:33;;;;;;;1.15;0.80;;;;;;;;;;4992142;28;20723;-38
2022/11/22 05:06:03;;;;;;;0.93;0.63;;;;;;;;;;4972687;28;20030;-39
2022/11/22 05:08:29;;;;;;;8.27;0.95;;;;;;;;;;4992168;28;20054;-39
2022/11/22 05:10:55;;;;;;;1.73;0.88;;;;;;;;;;4989832;28;20057;-39
2022/11/22 05:13:22;;;;;;;2.13;1.10;;;;;;;;;;4991440;28;20379;-39
2022/11/22 05:15:50;;;;;;;2.88;1.40;;;;;;;;;;4991670;28;20026;-41
2022/11/22 05:18:17;;;;;;;3.70;1.30;;;;;;;;;;4991966;28;20074;-39
2022/11/22 05:20:43;;;;;;;2.38;1.00;;;;;;;;;;4989023;28;20046;-40
2022/11/22 05:25:54;;;;;;;2.08;1.10;;;;;;;;;;4990511;28;20796;-38
2022/11/22 05:28:20;;;;;;;2.13;1.13;;;;;;;;;;4992512;28;20022;-39
2022/11/22 05:30:46;;;;;;;4.93;1.30;;;;;;;;;;4990614;28;20039;-39
2022/11/22 05:33:12;;;;;;;1.30;0.85;;;;;;;;;;4990695;28;20034;-39
2022/11/22 05:35:38;;;;;;;3.67;1.15;;;;;;;;;;4991489;28;20029;-39
2022/11/22 05:38:04;;;;;;;10.90;1.40;;;;;;;;;;4991119;28;20023;-39
2022/11/22 05:40:30;;;;;;;4.22;1.10;;;;;;;;;;4989207;28;20498;-39
2022/11/22 05:42:57;;;;;;;3.58;1.30;;;;;;;;;;4991149;28;20108;-39
2022/11/22 05:45:23;;;;;;;3.47;1.23;;;;;;;;;;4991214;28;20395;-39
2022/11/22 05:47:49;;;;;;;3.83;1.00;;;;;;;;;;4991402;28;20038;-41
2022/11/22 05:50:15;;;;;;;1.88;1.20;;;;;;;;;;4989159;28;20049;-39
2022/11/22 05:52:41;;;;;;;2.60;0.82;;;;;;;;;;4991012;28;20036;-38
2022/11/22 05:55:07;;;;;;;2.42;1.10;;;;;;;;;;4990807;28;20058;-40
2022/11/22 05:57:33;;;;;;;2.20;0.88;;;;;;;;;;4983289;28;20033;-39
2022/11/22 05:59:59;;;;;;;3.45;0.80;;;;;;;;;;4990155;28;20030;-39
2022/11/22 06:02:25;;;;;;;2.78;1.40;;;;;;;;;;4991002;28;20038;-38
2022/11/22 06:04:51;;;;;;;2.58;1.20;;;;;;;;;;4991251;28;20034;-42
2022/11/22 06:07:17;;;;;;;2.38;0.90;;;;;;;;;;4991303;28;20034;-39
2022/11/22 06:09:43;;;;;;;2.78;1.50;;;;;;;;;;4990307;28;20480;-39
2022/11/22 06:12:09;;;;;;;1.75;1.00;;;;;;;;;;4990241;28;20125;-38
2022/11/22 06:14:36;;;;;;;1.35;0.93;;;;;;;;;;4989210;28;20462;-38
2022/11/22 06:17:02;;;;;;;2.90;1.02;;;;;;;;;;4993813;28;20546;-38
2022/11/22 06:19:28;;;;;;;6.47;1.38;;;;;;;;;;4994592;28;20031;-40
2022/11/22 06:21:54;;;;;;;2.80;0.80;;;;;;;;;;4993937;28;20019;-40
2022/11/22 06:24:20;;;;;;;2.03;0.93;;;;;;;;;;4995255;28;20028;-39
2022/11/22 06:26:46;;;;;;;2.47;0.95;;;;;;;;;;4990374;28;20030;-40
2022/11/22 06:29:12;;;;;;;2.08;0.80;;;;;;;;;;4988550;28;20061;-40
2022/11/22 06:31:38;;;;;;;2.72;1.17;;;;;;;;;;4985931;28;20030;-40
2022/11/22 06:34:04;;;;;;;3.47;1.42;;;;;;;;;;4991077;28;20033;-39
2022/11/22 06:36:32;;;;;;;3.13;1.33;;;;;;;;;;4993959;28;20128;-40
2022/11/22 06:38:58;;;;;;;2.75;1.00;;;;;;;;;;4994248;28;20018;-39
2022/11/22 06:41:25;;;;;;;1.92;0.70;;;;;;;;;;4993757;28;20382;-39
2022/11/22 06:43:52;;;;;;;2.83;0.70;;;;;;;;;;4994356;28;20018;-42
2022/11/22 06:46:19;;;;;;;2.35;0.75;;;;;;;;;;4993210;28;20092;-39
2022/11/22 06:48:45;;;;;;;1.27;0.65;;;;;;;;;;4990187;28;20031;-38
2022/11/22 06:51:13;;;;;;;5.47;0.90;;;;;;;;;;4993023;28;20094;-39
2022/11/22 06:53:39;;;;;;;3.03;1.05;;;;;;;;;;4994947;28;20348;-39
2022/11/22 06:56:12;;;;;;;3.67;1.02;;;;;;;;;;4994577;28;20375;-39
2022/11/22 06:58:39;;;;;;;3.00;1.08;;;;;;;;;;4994940;28;20030;-39
2022/11/22 07:01:06;;;;;;;3.17;0.90;;;;;;;;;;4992561;28;20030;-39
2022/11/22 07:03:34;;;;;;;2.67;1.08;;;;;;;;;;4992015;28;20027;-40
2022/11/22 07:06:00;;;;;;;1.50;0.70;;;;;;;;;;4989777;28;20037;-39
2022/11/22 07:08:26;;;;;;;3.08;0.80;;;;;;;;;;4994539;28;20371;-39
2022/11/22 07:10:52;;;;;;;3.78;0.98;;;;;;;;;;4993510;28;20057;-42
2022/11/22 07:13:18;;;;;;;4.72;0.80;;;;;;;;;;4994253;28;20042;-40
2022/11/22 07:15:52;;;;;;;3.53;1.10;;;;;;;;;;4994140;28;20018;-39
2022/11/22 07:18:18;;;;;;;3.60;0.82;;;;;;;;;;4994412;28;20432;-40
2022/11/22 07:20:45;;;;;;;2.17;0.93;;;;;;;;;;4990171;28;20050;-40
2022/11/22 07:23:11;;;;;;;5.57;1.17;;;;;;;;;;4985798;28;20057;-40
2022/11/22 07:25:38;;;;;;;4.60;1.10;;;;;;;;;;4990005;28;20097;-40
2022/11/22 07:28:04;;;;;;;3.80;0.98;;;;;;;;;;4988336;28;20034;-40
2022/11/22 07:30:30;;;;;;;2.70;1.20;;;;;;;;;;4989014;28;20483;-39
2022/11/22 07:32:55;;;;;;;4.13;1.27;;;;;;;;;;4992454;28;20023;-38
2022/11/22 07:35:21;;;;;;;5.00;0.75;;;;;;;;;;4993474;28;20482;-38
2022/11/22 07:37:47;;;;;;;2.75;1.10;;;;;;;;;;4989818;28;20030;-40
2022/11/22 07:40:13;;;;;;;7.55;2.08;;;;;;;;;;4992533;28;20026;-38
2022/11/22 07:42:39;;;;;;;2.75;1.00;;;;;;;;;;4993352;28;20026;-38
2022/11/22 07:45:05;;;;;;;3.92;1.05;;;;;;;;;;4992797;28;20460;-38
2022/11/22 07:47:31;;;;;;;5.90;1.13;;;;;;;;;;4993538;28;20080;-38
2022/11/22 07:49:57;;;;;;;4.28;0.95;;;;;;;;;;4992252;28;20472;-38
2022/11/22 07:52:23;;;;;;;2.97;0.95;;;;;;;;;;4989002;28;20038;-38
2022/11/22 07:54:49;;;;;;;2.20;0.85;;;;;;;;;;4988442;28;20029;-41
2022/11/22 07:57:15;;;;;;;3.05;0.85;;;;;;;;;;4990626;28;20080;-38
2022/11/22 07:59:41;;;;;;;3.72;0.80;;;;;;;;;;4993366;28;20034;-38
2022/11/22 08:02:10;;;;;;;1.52;0.80;;;;;;;;;;4991917;28;20054;-38
2022/11/22 08:04:36;;;;;;;5.90;1.63;;;;;;;;;;4993217;28;20102;-38
2022/11/22 08:07:02;;;;;;;1.60;0.70;;;;;;;;;;4991926;28;20113;-38
2022/11/22 08:09:28;;;;;;;4.22;1.17;;;;;;;;;;4992223;28;20022;-38
2022/11/22 08:11:54;;;;;;;2.03;1.10;;;;;;;;;;4991037;28;20057;-38
2022/11/22 08:14:20;;;;;;;2.30;0.82;;;;;;;;;;4991818;28;20076;-38
2022/11/22 08:16:46;;;;;;;3.95;1.10;;;;;;;;;;4989713;28;20073;-38
2022/11/22 08:19:16;;;;;;;5.30;1.83;;;;;;;;;;4992814;28;20023;-38
2022/11/22 08:21:42;;;;;;;3.35;0.85;;;;;;;;;;4992725;28;20029;-38
2022/11/22 08:24:08;;;;;;;3.33;1.63;;;;;;;;;;4991844;28;20111;-38
2022/11/22 08:26:34;;;;;;;5.07;0.90;;;;;;;;;;4992387;28;20530;-39
2022/11/22 08:29:03;;;;;;;2.42;1.05;;;;;;;;;;4985808;28;20476;-38
2022/11/22 08:31:29;;;;;;;3.78;1.25;;;;;;;;;;4992097;28;20028;-38
2022/11/22 08:33:55;;;;;;;2.97;1.13;;;;;;;;;;4991975;28;20022;-38
2022/11/22 08:36:21;;;;;;;4.05;1.00;;;;;;;;;;4991960;28;20034;-38
2022/11/22 08:38:47;;;;;;;4.20;1.52;;;;;;;;;;4992070;28;20054;-38
2022/11/22 08:41:13;;;;;;;5.43;1.10;;;;;;;;;;4991432;28;20030;-38
2022/11/22 08:43:39;;;;;;;2.63;1.10;;;;;;;;;;4992349;28;20579;-38
2022/11/22 08:46:06;;;;;;;5.75;1.20;;;;;;;;;;4990605;28;20125;-38
2022/11/22 08:48:33;;;;;;;3.08;1.10;;;;;;;;;;4992413;28;20026;-38
2022/11/22 08:51:01;;;;;;;3.47;1.02;;;;;;;;;;4991325;28;20021;-38
2022/11/22 08:53:28;;;;;;;2.42;1.10;;;;;;;;;;4992165;28;20068;-38
2022/11/22 08:55:55;;;;;;;3.22;1.15;;;;;;;;;;4990890;28;20026;-38
2022/11/22 08:58:21;;;;;;;3.35;1.15;;;;;;;;;;4992450;28;20065;-38
2022/11/22 09:00:47;;;;;;;3.60;1.02;;;;;;;;;;4991830;28;20053;-38
2022/11/22 09:03:13;;;;;;;3.30;1.30;;;;;;;;;;4984902;28;20084;-38
2022/11/22 09:05:39;;;;;;;1.75;0.90;;;;;;;;;;4991808;28;20116;-38
2022/11/22 09:08:05;;;;;;;2.78;0.75;;;;;;;;;;4991522;28;20018;-38
2022/11/22 09:10:31;;;;;;;3.72;0.80;;;;;;;;;;4990971;28;20054;-38
2022/11/22 09:12:57;;;;;;;2.38;1.20;;;;;;;;;;4991148;28;20022;-38
2022/11/22 09:15:23;;;;;;;5.47;2.15;;;;;;;;;;4991535;28;20034;-38
2022/11/22 09:17:49;;;;;;;4.95;1.75;;;;;;;;;;4991555;28;20026;-41
2022/11/22 09:20:16;;;;;;;2.83;1.00;;;;;;;;;;4986254;28;20022;-38
2022/11/22 09:22:42;;;;;;;3.08;1.10;;;;;;;;;;4990122;28;20026;-38
2022/11/22 09:25:08;;;;;;;4.57;1.73;;;;;;;;;;4973234;28;20052;-38
2022/11/22 09:27:34;;;;;;;2.80;1.20;;;;;;;;;;4991663;28;20109;-38
2022/11/22 09:30:00;;;;;;;4.50;1.13;;;;;;;;;;4990223;28;20085;-38
2022/11/22 09:32:26;;;;;;;2.17;1.00;;;;;;;;;;4991881;28;20097;-38
2022/11/22 09:34:52;;;;;;;2.05;1.27;;;;;;;;;;4990986;28;20109;-41
2022/11/22 09:37:18;;;;;;;3.47;0.90;;;;;;;;;;4985296;28;20031;-38
2022/11/22 09:39:45;;;;;;;3.35;1.20;;;;;;;;;;4991111;28;20483;-38
2022/11/22 09:42:14;;;;;;;2.78;1.10;;;;;;;;;;4990668;28;20577;-38
2022/11/22 09:44:55;;;;;;;3.00;0.95;;;;;;;;;;4991980;28;20041;-38
2022/11/22 09:47:28;;;;;;;2.73;1.10;;;;;;;;;;4991488;28;20045;-38
2022/11/22 09:50:13;;;;;;;3.35;1.00;;;;;;;;;;4990469;28;20030;-40
2022/11/22 09:52:56;;;;;;;2.17;0.90;;;;;;;;;;4994423;28;20407;-38
2022/11/22 09:55:24;;;;;;;2.35;1.02;;;;;;;;;;4981681;28;20034;-38
2022/11/22 09:58:04;;;;;;;2.38;1.10;;;;;;;;;;4995008;28;20066;-41
2022/11/22 10:00:30;;;;;;;2.67;1.30;;;;;;;;;;4995076;28;20504;-38
2022/11/22 10:03:15;;;;;;;4.80;1.27;;;;;;;;;;4994226;28;20476;-38
2022/11/22 10:05:51;;;;;;;3.00;1.00;;;;;;;;;;4983065;28;20080;-38
2022/11/22 10:08:23;;;;;;;6.10;1.55;;;;;;;;;;4995078;28;20030;-38
2022/11/22 10:10:51;;;;;;;2.65;1.05;;;;;;;;;;4988919;28;20055;-41
2022/11/22 10:13:22;;;;;;;2.42;1.00;;;;;;;;;;4993076;28;20038;-38
2022/11/22 10:15:54;;;;;;;1.90;0.93;;;;;;;;;;4986833;28;20430;-43
2022/11/22 10:18:39;;;;;;;2.15;1.00;;;;;;;;;;4993020;28;20107;-38
2022/11/22 10:21:09;;;;;;;3.63;1.42;;;;;;;;;;4992431;28;20085;-38
2022/11/22 10:23:35;;;;;;;2.72;1.17;;;;;;;;;;4992571;28;20026;-38
2022/11/22 10:26:04;;;;;;;2.28;0.85;;;;;;;;;;4993846;28;20038;-38
2022/11/22 10:28:35;;;;;;;2.28;1.20;;;;;;;;;;4988125;28;20026;-38
2022/11/22 10:31:06;;;;;;;1.63;0.75;;;;;;;;;;4993938;28;20030;-38
2022/11/22 10:33:36;;;;;;;2.15;0.88;;;;;;;;;;4993454;28;20053;-38
2022/11/22 10:36:21;;;;;;;2.00;0.90;;;;;;;;;;4993878;28;20388;-38
2022/11/22 10:38:54;;;;;;;3.20;0.82;;;;;;;;;;4994629;28;20085;-40
2022/11/22 10:41:23;;;;;;;4.90;1.10;;;;;;;;;;4994411;28;20034;-37
2022/11/22 10:44:02;;;;;;;2.70;1.10;;;;;;;;;;4994593;28;20022;-41
2022/11/22 10:46:37;;;;;;;3.35;1.30;;;;;;;;;;4993789;28;20113;-38
2022/11/22 10:49:12;;;;;;;3.45;1.08;;;;;;;;;;4993584;28;20530;-38
2022/11/22 10:51:47;;;;;;;2.28;1.00;;;;;;;;;;4994166;28;20019;-38
2022/11/22 10:54:19;;;;;;;1.20;0.60;;;;;;;;;;4976605;28;20503;-38
2022/11/22 10:57:14;;;;;;;4.55;1.13;;;;;;;;;;4994104;28;20105;-38
2022/11/22 10:59:47;;;;;;;4.03;1.20;;;;;;;;;;4923502;28;20048;-38
2022/11/22 11:02:19;;;;;;;5.78;1.42;;;;;;;;;;4985861;28;20042;-38
2022/11/22 11:04:45;;;;;;;;;;;;;;;;;;4988590;28;20033;-38
2022/11/22 11:07:14;;;;;;;8.20;2.47;;;;;;;;;;4992771;28;19918;-38
2022/11/22 11:09:42;;;;;;;12.05;3.53;;;;;;;;;;4994196;28;20053;-38
2022/11/22 11:12:18;;;;;;;9.90;2.55;;;;;;;;;;4992514;28;20137;-38
2022/11/22 11:15:04;;;;;;;11.00;3.33;;;;;;;;;;4994457;28;20027;-38
2022/11/22 11:17:37;;;;;;;6.88;1.77;;;;;;;;;;4994133;28;20039;-38
2022/11/22 11:20:05;;;;;;;11.00;2.40;;;;;;;;;;4991790;28;20081;-38
2022/11/22 11:22:33;;;;;;;12.48;2.97;;;;;;;;;;4994256;28;20026;-38
2022/11/22 11:25:19;;;;;;;6.50;2.35;;;;;;;;;;4989562;28;20022;-39
2022/11/22 11:27:45;;;;;;;5.82;2.03;;;;;;;;;;4993225;28;20395;-39
2022/11/22 11:30:11;;;;;;;8.82;2.10;;;;;;;;;;4989064;28;20034;-39
2022/11/22 11:32:53;;;;;;;8.25;2.15;;;;;;;;;;4993937;28;20034;-39
2022/11/22 11:35:19;;;;;;;;;;;;;;;;;;4993578;28;20027;-39
2022/11/22 11:37:45;;;;;;;6.55;2.60;;;;;;;;;;4985085;28;20325;-39
2022/11/22 11:40:25;;;;;;;11.52;3.17;;;;;;;;;;4992488;28;20064;-39
2022/11/22 11:43:11;;;;;;;7.47;2.97;;;;;;;;;;4992994;28;20038;-41
2022/11/22 11:45:37;;;;;;;10.38;3.60;;;;;;;;;;4984589;28;20023;-39
2022/11/22 11:48:03;;;;;;;7.93;2.50;;;;;;;;;;4992848;28;20116;-39
2022/11/22 11:50:30;;;;;;;8.75;3.38;;;;;;;;;;4990842;28;20034;-39
2022/11/22 11:53:05;;;;;;;7.60;2.80;;;;;;;;;;4990190;28;20432;-39
2022/11/22 11:55:35;;;;;;;7.63;2.45;;;;;;;;;;4992701;28;20427;-40
2022/11/22 11:58:03;;;;;;;6.38;2.22;;;;;;;;;;4992382;28;20494;-39
2022/11/22 12:00:35;;;;;;;5.93;2.85;;;;;;;;;;4993161;28;20031;-39
2022/11/22 12:03:05;;;;;;;9.90;1.90;;;;;;;;;;4992782;28;20357;-40
2022/11/22 12:05:32;;;;;;;5.10;2.42;;;;;;;;;;4992782;28;20030;-39
2022/11/22 12:07:59;;;;;;;5.32;2.10;;;;;;;;;;4992409;28;20026;-39
2022/11/22 12:10:30;;;;;;;7.93;1.80;;;;;;;;;;4983034;28;20551;-39
2022/11/22 12:12:56;;;;;;;5.10;2.08;;;;;;;;;;4991573;28;20791;-39
2022/11/22 12:15:25;;;;;;;5.45;2.10;;;;;;;;;;4992224;28;20105;-39
2022/11/22 12:18:04;;;;;;;7.00;1.75;;;;;;;;;;4991056;28;20383;-42
2022/11/22 12:20:38;;;;;;;4.88;1.75;;;;;;;;;;4992495;28;20380;-39
2022/11/22 12:23:10;;;;;;;3.28;1.58;;;;;;;;;;4992238;28;20178;-40
2022/11/22 12:25:37;;;;;;;5.78;1.73;;;;;;;;;;4991512;28;20368;-39
2022/11/22 12:28:20;;;;;;;3.92;1.67;;;;;;;;;;4991580;28;20134;-39
2022/11/22 12:31:05;;;;;;;5.22;1.60;;;;;;;;;;4992204;28;20030;-39
2022/11/22 12:33:34;;;;;;;4.88;1.60;;;;;;;;;;4992507;28;20471;-39
2022/11/22 12:36:02;;;;;;;4.30;1.35;;;;;;;;;;4991433;28;20109;-39
2022/11/22 12:38:32;;;;;;;4.82;1.45;;;;;;;;;;4975383;28;20387;-39
2022/11/22 12:41:00;;;;;;;4.40;1.60;;;;;;;;;;4991307;28;20022;-39
2022/11/22 12:43:36;;;;;;;5.85;1.67;;;;;;;;;;4991942;28;20037;-40
2022/11/22 12:46:21;;;;;;;7.05;2.60;;;;;;;;;;4991218;28;20085;-39
2022/11/22 12:49:20;;;;;;;3.35;1.10;;;;;;;;;;4992632;28;20022;-40
2022/11/22 12:51:48;;;;;;;6.05;1.70;;;;;;;;;;4936765;28;20117;-39
2022/11/22 12:54:21;;;;;;;3.50;1.23;;;;;;;;;;4992840;28;20030;-39
2022/11/22 12:56:52;;;;;;;4.93;1.33;;;;;;;;;;4992476;28;20558;-38
2022/11/22 12:59:21;;;;;;;3.75;1.25;;;;;;;;;;4992459;28;20033;-39
2022/11/22 13:02:19;;;;;;;2.97;0.98;;;;;;;;;;4989630;28;20094;-38
2022/11/22 13:04:51;;;;;;;1.95;0.82;;;;;;;;;;4959537;28;20130;-38
2022/11/22 13:07:21;;;;;;;4.72;1.88;;;;;;;;;;4992190;28;20027;-39
2022/11/22 13:09:52;;;;;;;6.57;2.25;;;;;;;;;;4992306;28;20120;-38
2022/11/22 13:12:22;;;;;;;4.37;2.13;;;;;;;;;;4991552;28;20496;-39
2022/11/22 13:14:55;;;;;;;6.05;1.95;;;;;;;;;;4992171;28;20399;-41
2022/11/22 13:17:24;;;;;;;4.22;1.00;;;;;;;;;;4990835;28;20022;-39
2022/11/22 13:19:56;;;;;;;5.13;1.10;;;;;;;;;;4991111;28;20022;-42
2022/11/22 13:22:31;;;;;;;6.05;1.58;;;;;;;;;;4974584;28;20206;-39
2022/11/22 13:25:07;;;;;;;2.15;1.08;;;;;;;;;;4987842;28;20065;-39
2022/11/22 13:27:35;;;;;;;4.53;1.15;;;;;;;;;;4990869;28;20037;-39
2022/11/22 13:30:01;;;;;;;4.75;1.05;;;;;;;;;;4990521;28;20034;-39
2022/11/22 13:32:31;;;;;;;2.53;0.80;;;;;;;;;;4991554;28;20105;-39
2022/11/22 13:35:12;;;;;;;1.90;0.93;;;;;;;;;;4984766;28;20031;-39
2022/11/22 13:37:59;;;;;;;3.47;1.17;;;;;;;;;;4970208;28;20550;-39
2022/11/22 13:40:35;;;;;;;4.18;1.13;;;;;;;;;;4990974;28;20427;-39
2022/11/22 13:43:13;;;;;;;3.38;1.25;;;;;;;;;;4987079;28;20030;-39
2022/11/22 13:46:03;;;;;;;1.55;0.80;;;;;;;;;;4985815;28;20023;-39
2022/11/22 13:48:41;;;;;;;5.88;1.48;;;;;;;;;;4991675;28;20524;-39
2022/11/22 13:51:30;;;;;;;2.80;0.90;;;;;;;;;;4987253;28;20027;-42
2022/11/22 13:54:16;;;;;;;1.92;0.95;;;;;;;;;;4983198;28;20027;-39
2022/11/22 13:56:42;;;;;;;1.98;0.80;;;;;;;;;;4984465;28;20026;-39
2022/11/22 13:59:16;;;;;;;2.30;0.80;;;;;;;;;;4989474;28;20089;-38
2022/11/22 14:01:41;;;;;;;5.05;1.08;;;;;;;;;;4991093;28;20360;-39
2022/11/22 14:04:31;;;;;;;2.03;0.88;;;;;;;;;;4991060;28;20037;-38
2022/11/22 14:07:09;;;;;;;3.35;0.82;;;;;;;;;;4979673;28;20051;-39
2022/11/22 14:09:44;;;;;;;2.67;0.88;;;;;;;;;;4981806;28;20018;-39
2022/11/22 14:12:10;;;;;;;1.80;0.88;;;;;;;;;;4989896;28;20054;-39
2022/11/22 14:14:55;;;;;;;5.25;1.20;;;;;;;;;;4991150;28;20049;-39
2022/11/22 14:17:47;;;;;;;3.03;1.08;;;;;;;;;;4989989;28;20038;-39
2022/11/22 14:20:27;;;;;;;3.38;1.10;;;;;;;;;;4954170;28;20034;-38
2022/11/22 14:22:56;;;;;;;2.65;0.70;;;;;;;;;;4990456;28;20439;-39
2022/11/22 14:25:39;;;;;;;2.53;0.60;;;;;;;;;;4989708;28;20029;-39
2022/11/22 14:28:17;;;;;;;2.35;1.20;;;;;;;;;;4984402;28;20030;-38
2022/11/22 14:30:51;;;;;;;3.78;0.80;;;;;;;;;;4991001;28;20452;-39
2022/11/22 14:33:18;;;;;;;2.83;1.02;;;;;;;;;;4991226;28;20022;-38
2022/11/22 14:36:03;;;;;;;1.23;0.60;;;;;;;;;;4990774;28;20046;-38
2022/11/22 14:38:31;;;;;;;1.58;0.60;;;;;;;;;;4994816;28;20031;-38
2022/11/22 14:41:15;;;;;;;2.08;0.65;;;;;;;;;;4993851;28;20498;-39
2022/11/22 14:43:42;;;;;;;1.80;0.70;;;;;;;;;;4986672;28;20089;-39
2022/11/22 14:46:13;;;;;;;2.08;0.80;;;;;;;;;;4993146;28;20931;-38
2022/11/22 14:48:51;;;;;;;1.27;0.57;;;;;;;;;;4994561;28;20026;-39
2022/11/22 14:51:23;;;;;;;2.13;0.80;;;;;;;;;;4993865;28;20023;-39
2022/11/22 14:53:51;;;;;;;2.38;0.80;;;;;;;;;;4994216;28;20022;-42
2022/11/22 14:56:17;;;;;;;1.23;0.60;;;;;;;;;;4976267;28;20034;-38
2022/11/22 14:58:51;;;;;;;2.30;0.80;;;;;;;;;;4994708;28;20084;-38
2022/11/22 15:01:19;;;;;;;1.45;0.50;;;;;;;;;;4983080;28;20018;-38
2022/11/22 15:03:54;;;;;;;2.10;0.90;;;;;;;;;;4994299;28;20399;-38
2022/11/22 15:06:28;;;;;;;5.32;1.05;;;;;;;;;;4993980;28;20030;-38
2022/11/22 15:09:03;;;;;;;2.80;0.80;;;;;;;;;;4993699;28;20081;-39